Time;durP1;ratioP1;P1;durP2;ratioP2;P2;SDS_P1;SDS_P2;PMS_P1;PMS_P2;Temp;Humidity;BMP_temperature;BMP_pressure;BME280_temperature;BME280_humidity;BME280_pressure;Samples;Min_cycle;Max_cycle;Signal;HPM_P1;HPM_P2
2023/01/05 00:01:02;;;;;;;13.43;3.10;;;11.80;99.90;;;;;;5019050;28;20192;-61
2023/01/05 00:03:28;;;;;;;17.85;3.28;;;11.70;99.90;;;;;;5017335;28;20257;-62
2023/01/05 00:06:01;;;;;;;6.20;2.70;;;11.70;99.90;;;;;;5029155;28;20195;-62
2023/01/05 00:08:27;;;;;;;10.75;2.72;;;11.70;99.90;;;;;;5013990;28;20194;-63
2023/01/05 00:24:39;;;;;;;12.32;3.50;;;11.80;99.90;;;;;;5011334;28;20547;-62
2023/01/05 00:27:05;;;;;;;15.40;3.47;;;11.90;99.90;;;;;;5012301;28;20187;-62
2023/01/05 00:29:31;;;;;;;13.45;2.42;;;11.90;99.90;;;;;;5011549;28;20223;-62
2023/01/05 00:31:56;;;;;;;6.07;2.92;;;11.90;99.90;;;;;;5028525;28;20198;-62
2023/01/05 00:34:22;;;;;;;10.75;2.60;;;12.00;99.90;;;;;;5012991;28;20191;-62
2023/01/05 00:36:48;;;;;;;17.27;3.47;;;12.00;99.90;;;;;;5027773;28;20192;-63
2023/01/05 00:39:13;;;;;;;20.20;3.47;;;12.10;99.90;;;;;;5028704;28;20555;-62
2023/01/05 00:41:39;;;;;;;12.07;2.08;;;12.20;99.90;;;;;;5014065;28;20187;-62
2023/01/05 00:44:04;;;;;;;21.95;2.50;;;12.20;99.90;;;;;;5024333;28;20218;-62
2023/01/05 00:46:31;;;;;;;9.80;3.70;;;12.10;99.90;;;;;;4997900;28;20183;-62
2023/01/05 00:48:56;;;;;;;7.07;1.85;;;12.00;99.90;;;;;;5012963;28;20343;-62
2023/01/05 00:51:22;;;;;;;15.10;2.85;;;12.00;99.90;;;;;;5012615;28;20283;-62
2023/01/05 00:53:48;;;;;;;14.50;2.97;;;12.00;99.90;;;;;;5018555;28;20278;-63
2023/01/05 00:56:14;;;;;;;7.20;3.47;;;12.00;99.90;;;;;;4984577;28;20330;-63
2023/01/05 00:58:39;;;;;;;13.48;2.63;;;12.00;99.90;;;;;;5027716;28;20183;-62
2023/01/05 01:01:10;;;;;;;12.77;3.85;;;12.00;99.90;;;;;;5015579;28;20687;-62
2023/01/05 01:03:35;;;;;;;17.10;3.45;;;12.00;99.90;;;;;;5028083;28;20210;-61
2023/01/05 01:06:01;;;;;;;16.55;3.00;;;12.00;99.90;;;;;;5031640;28;20316;-62
2023/01/05 01:08:27;;;;;;;14.05;3.45;;;11.90;99.90;;;;;;5012743;28;20192;-61
2023/01/05 01:10:52;;;;;;;9.90;2.85;;;12.00;99.90;;;;;;5012697;28;20199;-61
2023/01/05 01:13:18;;;;;;;14.90;3.63;;;11.90;99.90;;;;;;5028441;28;20199;-62
2023/01/05 01:15:44;;;;;;;9.82;3.08;;;11.80;99.90;;;;;;5011544;28;20191;-62
2023/01/05 01:18:09;;;;;;;14.27;2.55;;;11.80;99.90;;;;;;5017787;28;20270;-61
2023/01/05 01:20:36;;;;;;;8.60;3.72;;;11.70;99.90;;;;;;5000283;28;20187;-62
2023/01/05 01:23:03;;;;;;;8.93;3.00;;;11.80;99.90;;;;;;5018492;28;20226;-61
2023/01/05 01:25:29;;;;;;;11.55;3.20;;;11.80;99.90;;;;;;5012081;28;20183;-61
2023/01/05 01:27:55;;;;;;;13.32;2.60;;;11.70;99.90;;;;;;5012358;28;20211;-62
2023/01/05 01:30:21;;;;;;;11.63;3.22;;;11.70;99.90;;;;;;4991869;28;20625;-61
2023/01/05 01:32:46;;;;;;;11.20;3.72;;;11.70;99.90;;;;;;5008004;28;20183;-62
2023/01/05 01:35:12;;;;;;;16.08;3.55;;;11.70;99.90;;;;;;4995110;28;20227;-61
2023/01/05 01:37:39;;;;;;;11.23;3.17;;;11.60;99.90;;;;;;5015730;28;20555;-63
2023/01/05 01:40:06;;;;;;;11.32;2.92;;;11.70;99.90;;;;;;5038770;28;20179;-62
2023/01/05 01:42:32;;;;;;;16.58;2.25;;;11.60;99.90;;;;;;5011502;28;20599;-62
2023/01/05 01:45:00;;;;;;;18.52;3.13;;;11.60;99.90;;;;;;5027618;28;20195;-61
2023/01/05 01:47:35;;;;;;;12.73;3.42;;;11.60;99.90;;;;;;5011904;28;20188;-61
2023/01/05 01:50:12;;;;;;;14.18;1.88;;;11.70;99.90;;;;;;5012316;28;20194;-61
2023/01/05 01:52:38;;;;;;;15.50;2.92;;;11.70;99.90;;;;;;5024761;28;20183;-63
2023/01/05 01:55:05;;;;;;;15.07;2.75;;;11.70;99.90;;;;;;5026956;28;20207;-62
2023/01/05 01:57:32;;;;;;;12.05;2.65;;;11.70;99.90;;;;;;5010558;28;20187;-62
2023/01/05 02:00:01;;;;;;;18.42;4.88;;;11.90;99.90;;;;;;5027039;28;20249;-62
2023/01/05 02:02:27;;;;;;;14.38;3.75;;;11.80;99.90;;;;;;5017031;28;20211;-62
2023/01/05 02:04:55;;;;;;;9.77;2.63;;;11.90;99.90;;;;;;5021424;28;20252;-63
2023/01/05 02:07:24;;;;;;;17.88;2.65;;;11.90;99.90;;;;;;5008848;28;20520;-62
2023/01/05 02:09:49;;;;;;;11.05;2.65;;;11.80;99.90;;;;;;5015615;28;20628;-62
2023/01/05 02:12:21;;;;;;;9.95;3.15;;;11.80;99.90;;;;;;5016039;28;20249;-62
2023/01/05 02:15:02;;;;;;;15.55;2.92;;;12.00;99.90;;;;;;5015949;28;20187;-62
2023/01/05 02:17:57;;;;;;;15.48;3.33;;;12.10;99.90;;;;;;5016986;28;20628;-62
2023/01/05 02:20:26;;;;;;;14.32;2.75;;;12.10;99.90;;;;;;5014231;28;20180;-62
2023/01/05 02:22:57;;;;;;;16.52;2.60;;;12.20;99.90;;;;;;5016204;28;20227;-62
2023/01/05 02:25:23;;;;;;;15.45;2.78;;;12.30;99.90;;;;;;5021829;28;20651;-62
2023/01/05 02:28:10;;;;;;;16.45;2.65;;;12.20;99.90;;;;;;5025509;28;20187;-62
2023/01/05 02:31:12;;;;;;;13.10;3.75;;;12.10;99.90;;;;;;5018892;28;20218;-62
2023/01/05 02:33:56;;;;;;;12.10;2.60;;;12.10;99.90;;;;;;5014008;28;20231;-62
2023/01/05 02:36:45;;;;;;;13.88;3.28;;;12.20;99.90;;;;;;5015966;28;20187;-62
2023/01/05 02:39:10;;;;;;;19.50;5.10;;;12.30;99.90;;;;;;5029240;28;20178;-63
2023/01/05 02:41:51;;;;;;;18.92;2.78;;;12.30;99.90;;;;;;5003236;28;20184;-65
2023/01/05 02:44:17;;;;;;;15.80;2.85;;;12.30;99.90;;;;;;5041473;28;20206;-62
2023/01/05 02:46:44;;;;;;;14.07;3.10;;;12.30;99.90;;;;;;5014049;28;20191;-62
2023/01/05 02:49:15;;;;;;;16.65;3.30;;;12.30;99.90;;;;;;5022751;28;20181;-62
2023/01/05 02:51:47;;;;;;;10.77;3.17;;;12.20;99.90;;;;;;5014056;28;20191;-63
2023/01/05 02:54:45;;;;;;;9.38;2.30;;;12.30;99.90;;;;;;5016299;28;20206;-63
2023/01/05 02:57:45;;;;;;;12.45;3.97;;;12.30;99.90;;;;;;5001721;28;20203;-63
2023/01/05 03:00:15;;;;;;;11.35;2.45;;;12.40;99.90;;;;;;5004732;28;20179;-64
2023/01/05 03:02:43;;;;;;;15.38;3.30;;;12.30;99.90;;;;;;5012727;28;20285;-64
2023/01/05 03:05:23;;;;;;;13.52;2.88;;;12.30;99.90;;;;;;5023357;28;20203;-63
2023/01/05 03:07:50;;;;;;;12.23;2.35;;;12.30;99.90;;;;;;5015080;28;20207;-63
2023/01/05 03:15:57;;;;;;;9.20;2.65;;;12.10;99.90;;;;;;5025373;28;20206;-64
2023/01/05 03:18:25;;;;;;;16.30;3.80;;;12.10;99.90;;;;;;5028915;28;20191;-63
2023/01/05 03:20:53;;;;;;;13.75;2.95;;;12.20;99.90;;;;;;5014671;28;20179;-63
2023/01/05 03:38:11;;;;;;;14.02;3.42;;;12.20;99.90;;;;;;5021598;28;20214;-64
2023/01/05 03:40:38;;;;;;;17.85;3.58;;;12.20;99.90;;;;;;5002936;28;20191;-64
2023/01/05 03:43:05;;;;;;;12.73;2.75;;;12.10;99.90;;;;;;4993520;28;20212;-64
2023/01/05 03:45:39;;;;;;;16.63;4.63;;;12.10;99.90;;;;;;5026946;28;20196;-63
2023/01/05 03:48:05;;;;;;;15.13;3.45;;;12.10;99.90;;;;;;5004658;28;20199;-63
2023/01/05 03:50:31;;;;;;;11.30;4.05;;;12.00;99.90;;;;;;5015230;28;20179;-63
2023/01/05 03:52:57;;;;;;;10.85;2.97;;;12.10;99.90;;;;;;4996276;28;20213;-63
2023/01/05 03:55:22;;;;;;;17.73;3.58;;;12.20;99.90;;;;;;5033864;28;20563;-62
2023/01/05 03:57:48;;;;;;;10.65;3.95;;;12.20;99.90;;;;;;4996460;28;20326;-62
2023/01/05 04:00:14;;;;;;;9.63;2.65;;;12.30;99.90;;;;;;5012124;28;20187;-62
2023/01/05 04:02:40;;;;;;;8.98;2.45;;;12.30;99.90;;;;;;5012145;28;20290;-62
2023/01/05 04:05:06;;;;;;;20.13;4.68;;;12.30;99.90;;;;;;5009510;28;20286;-62
2023/01/05 04:07:31;;;;;;;14.52;2.67;;;12.20;99.90;;;;;;5016689;28;20270;-62
2023/01/05 04:09:57;;;;;;;12.60;2.38;;;12.20;99.90;;;;;;5017481;28;20226;-62
2023/01/05 04:12:22;;;;;;;21.70;4.25;;;12.10;99.90;;;;;;5013178;28;20199;-63
2023/01/05 04:14:48;;;;;;;8.55;2.08;;;12.10;99.90;;;;;;5012257;28;20199;-62
2023/01/05 04:17:14;;;;;;;12.60;4.07;;;12.10;99.90;;;;;;5028311;28;20196;-63
2023/01/05 04:19:39;;;;;;;9.18;2.63;;;12.00;99.90;;;;;;5013670;28;20652;-62
2023/01/05 04:22:05;;;;;;;10.50;2.03;;;12.00;99.90;;;;;;5036731;28;20273;-62
2023/01/05 04:24:31;;;;;;;14.48;3.80;;;12.10;99.90;;;;;;5012858;28;20191;-62
2023/01/05 04:26:56;;;;;;;20.90;3.58;;;12.20;99.90;;;;;;5010918;28;20195;-62
2023/01/05 04:29:22;;;;;;;12.15;3.15;;;12.10;99.90;;;;;;5012941;28;20560;-63
2023/01/05 04:31:48;;;;;;;16.38;2.95;;;12.00;99.90;;;;;;5009078;28;20196;-62
2023/01/05 04:34:13;;;;;;;11.20;2.08;;;12.00;99.90;;;;;;5028922;28;20233;-62
2023/01/05 04:36:39;;;;;;;8.30;3.75;;;12.00;99.90;;;;;;5011839;28;20191;-62
2023/01/05 04:39:05;;;;;;;15.60;3.53;;;12.10;99.90;;;;;;5011868;28;20191;-62
2023/01/05 04:41:30;;;;;;;19.65;4.63;;;12.10;99.90;;;;;;5011690;28;20191;-62
2023/01/05 04:43:57;;;;;;;8.48;1.88;;;12.10;99.90;;;;;;5012008;28;20219;-62
2023/01/05 04:46:22;;;;;;;18.65;2.63;;;12.10;99.90;;;;;;5013385;28;20191;-63
2023/01/05 04:48:48;;;;;;;13.88;2.33;;;12.00;99.90;;;;;;5022709;28;20198;-62
2023/01/05 04:51:13;;;;;;;16.13;2.40;;;12.00;99.90;;;;;;5027466;28;20192;-62
2023/01/05 04:53:39;;;;;;;10.43;2.47;;;12.00;99.90;;;;;;4994782;28;20187;-62
2023/01/05 04:56:05;;;;;;;8.75;3.60;;;12.10;99.90;;;;;;5032822;28;20654;-62
2023/01/05 04:58:31;;;;;;;14.13;2.65;;;12.20;99.90;;;;;;5003816;28;20191;-62
2023/01/05 05:00:57;;;;;;;17.92;3.42;;;12.10;99.90;;;;;;5014922;28;20604;-62
2023/01/05 05:03:23;;;;;;;13.45;2.95;;;12.20;99.90;;;;;;5019186;28;20297;-62
2023/01/05 05:05:49;;;;;;;15.35;4.45;;;12.20;99.90;;;;;;5011665;28;20195;-63
2023/01/05 05:08:15;;;;;;;17.73;2.38;;;12.10;99.90;;;;;;5021804;28;20241;-62
2023/01/05 05:10:40;;;;;;;11.18;3.13;;;12.00;99.90;;;;;;5015349;28;20191;-62
2023/01/05 05:13:06;;;;;;;14.10;2.65;;;12.10;99.90;;;;;;4997580;28;20254;-62
2023/01/05 05:15:32;;;;;;;12.43;2.90;;;12.10;99.90;;;;;;5018711;28;20190;-63
2023/01/05 05:17:57;;;;;;;12.48;2.58;;;12.00;99.90;;;;;;4989354;28;20261;-62
2023/01/05 05:20:23;;;;;;;11.68;2.38;;;12.00;99.90;;;;;;5012537;28;20297;-62
2023/01/05 05:22:49;;;;;;;15.05;5.38;;;12.00;99.90;;;;;;5014337;28;20223;-62
2023/01/05 05:25:14;;;;;;;23.75;6.30;;;12.10;99.90;;;;;;5012591;28;20549;-62
2023/01/05 05:27:40;;;;;;;20.67;2.63;;;12.00;99.90;;;;;;5032564;28;20205;-62
2023/01/05 05:30:06;;;;;;;13.07;3.47;;;12.00;99.90;;;;;;5012293;28;20222;-65
2023/01/05 05:32:32;;;;;;;13.07;2.28;;;11.80;99.90;;;;;;5017854;28;20207;-65
2023/01/05 05:34:58;;;;;;;10.30;3.40;;;11.80;99.90;;;;;;5027354;28;20195;-64
2023/01/05 05:37:23;;;;;;;17.52;4.15;;;11.80;99.90;;;;;;5004861;28;20186;-62
2023/01/05 05:39:49;;;;;;;15.90;4.03;;;11.80;99.90;;;;;;5025583;28;20199;-62
2023/01/05 05:42:15;;;;;;;15.23;3.97;;;11.80;99.90;;;;;;5016331;28;20273;-62
2023/01/05 05:44:40;;;;;;;18.77;2.85;;;11.80;99.90;;;;;;5016495;28;20191;-63
2023/01/05 05:47:06;;;;;;;14.25;3.17;;;11.80;99.90;;;;;;5031890;28;20195;-62
2023/01/05 05:49:32;;;;;;;19.08;3.38;;;11.70;99.90;;;;;;5026980;28;20186;-62
2023/01/05 05:51:57;;;;;;;19.08;2.90;;;11.70;99.90;;;;;;5015005;28;20593;-62
2023/01/05 05:54:23;;;;;;;13.40;3.42;;;11.70;99.90;;;;;;5015065;28;20203;-63
2023/01/05 05:56:48;;;;;;;18.17;4.72;;;11.80;99.90;;;;;;5034512;28;20214;-63
2023/01/05 05:59:14;;;;;;;14.07;4.10;;;11.80;99.90;;;;;;5018882;28;20609;-62
2023/01/05 06:01:40;;;;;;;18.73;2.80;;;11.90;99.90;;;;;;5021938;28;20194;-62
2023/01/05 06:04:06;;;;;;;18.20;3.60;;;11.90;99.90;;;;;;5016168;28;20269;-62
2023/01/05 06:06:31;;;;;;;16.52;3.28;;;11.90;99.90;;;;;;5020187;28;20187;-62
2023/01/05 06:08:57;;;;;;;12.07;2.90;;;12.00;99.90;;;;;;5020791;28;20192;-63
2023/01/05 06:11:23;;;;;;;13.68;3.90;;;12.00;99.90;;;;;;5010221;28;20181;-64
2023/01/05 06:13:48;;;;;;;9.77;2.97;;;12.10;99.90;;;;;;5025584;28;20199;-62
2023/01/05 06:16:14;;;;;;;17.95;3.55;;;12.00;99.90;;;;;;5017821;28;20191;-63
2023/01/05 06:18:40;;;;;;;12.75;2.25;;;12.00;99.90;;;;;;5015933;28;20274;-61
2023/01/05 06:21:06;;;;;;;17.92;4.00;;;12.10;99.90;;;;;;5031285;28;20273;-62
2023/01/05 06:23:32;;;;;;;19.58;3.25;;;12.20;99.90;;;;;;5011353;28;20242;-62
2023/01/05 06:25:58;;;;;;;22.50;3.75;;;12.10;99.90;;;;;;5015024;28;20656;-63
2023/01/05 06:28:23;;;;;;;20.48;2.78;;;12.10;99.90;;;;;;5011105;28;20650;-63
2023/01/05 06:30:49;;;;;;;10.95;3.10;;;12.00;99.90;;;;;;5014606;28;20660;-64
2023/01/05 06:33:15;;;;;;;14.35;4.78;;;12.00;99.90;;;;;;5014424;28;20193;-63
2023/01/05 06:35:40;;;;;;;17.75;3.22;;;11.80;99.90;;;;;;5030440;28;20718;-63
2023/01/05 06:38:06;;;;;;;7.80;2.85;;;11.90;99.90;;;;;;5029768;28;20554;-64
2023/01/05 06:40:32;;;;;;;21.08;4.22;;;12.00;99.90;;;;;;5021528;28;20576;-63
2023/01/05 06:42:57;;;;;;;13.65;2.83;;;11.90;99.90;;;;;;5023956;28;20302;-63
2023/01/05 06:45:23;;;;;;;9.05;2.97;;;11.90;99.90;;;;;;5035890;28;20342;-63
2023/01/05 06:47:49;;;;;;;14.23;2.97;;;11.80;99.90;;;;;;5024177;28;20252;-63
2023/01/05 06:50:14;;;;;;;16.58;2.85;;;12.00;99.90;;;;;;5017920;28;20554;-63
2023/01/05 06:52:40;;;;;;;13.75;2.05;;;12.00;99.90;;;;;;5030163;28;20233;-66
2023/01/05 06:55:10;;;;;;;13.38;3.05;;;11.90;99.90;;;;;;5023064;28;20198;-62
2023/01/05 06:57:37;;;;;;;19.15;3.33;;;11.90;99.90;;;;;;5030349;28;20215;-63
2023/01/05 07:00:08;;;;;;;20.55;4.50;;;11.80;99.90;;;;;;5018420;28;20619;-63
2023/01/05 07:02:34;;;;;;;18.05;3.80;;;11.90;99.90;;;;;;5015149;28;20294;-63
2023/01/05 07:05:00;;;;;;;14.43;3.13;;;12.00;99.90;;;;;;5009560;28;20274;-63
2023/01/05 07:07:26;;;;;;;15.63;2.55;;;12.10;99.90;;;;;;5013272;28;20237;-64
2023/01/05 07:09:52;;;;;;;14.05;3.95;;;11.90;99.90;;;;;;5022152;28;20539;-63
2023/01/05 07:12:18;;;;;;;12.85;3.30;;;11.90;99.90;;;;;;5012975;28;20198;-63
2023/01/05 07:14:43;;;;;;;11.82;3.38;;;11.90;99.90;;;;;;5029819;28;20723;-63
2023/01/05 07:17:11;;;;;;;9.55;3.42;;;11.90;99.90;;;;;;5026921;28;20190;-63
2023/01/05 07:19:37;;;;;;;18.92;3.65;;;11.80;99.90;;;;;;5006518;28;20650;-65
2023/01/05 07:22:03;;;;;;;12.15;3.75;;;11.70;99.90;;;;;;5013857;28;20206;-63
2023/01/05 07:24:28;;;;;;;20.70;4.28;;;11.70;99.90;;;;;;5026359;28;20206;-63
2023/01/05 07:26:54;;;;;;;16.75;4.93;;;11.90;99.90;;;;;;5014540;28;20238;-63
2023/01/05 07:29:20;;;;;;;25.80;6.45;;;11.90;99.90;;;;;;5014921;28;20222;-63
2023/01/05 07:31:51;;;;;;;30.00;4.70;;;11.90;99.90;;;;;;4993576;28;20279;-63
2023/01/05 07:34:17;;;;;;;20.05;2.67;;;11.70;99.90;;;;;;5009832;28;20195;-64
2023/01/05 07:36:43;;;;;;;24.63;5.43;;;11.60;99.90;;;;;;5000877;28;20542;-63
2023/01/05 07:39:08;;;;;;;14.82;2.33;;;11.40;99.90;;;;;;4996890;28;20190;-64
2023/01/05 07:41:34;;;;;;;16.17;3.45;;;11.40;99.90;;;;;;5013348;28;20270;-63
2023/01/05 07:43:59;;;;;;;9.30;3.05;;;11.50;99.90;;;;;;4997318;28;20233;-63
2023/01/05 07:46:25;;;;;;;11.35;3.10;;;11.60;99.90;;;;;;5013667;28;20214;-64
2023/01/05 07:48:51;;;;;;;16.55;2.72;;;11.60;99.90;;;;;;5013532;28;20187;-63
2023/01/05 07:51:17;;;;;;;12.43;3.08;;;11.80;99.90;;;;;;5012403;28;20234;-64
2023/01/05 07:53:42;;;;;;;11.73;3.13;;;11.80;99.90;;;;;;5014000;28;20188;-64
2023/01/05 07:56:10;;;;;;;14.85;3.67;;;11.60;99.90;;;;;;5014363;28;20199;-63
2023/01/05 07:58:36;;;;;;;6.55;2.80;;;11.60;99.90;;;;;;5012671;28;20190;-64
2023/01/05 08:01:06;;;;;;;14.52;4.40;;;11.60;99.90;;;;;;5021011;28;20625;-64
2023/01/05 08:03:33;;;;;;;11.07;2.50;;;11.70;99.90;;;;;;5014720;28;20569;-64
2023/01/05 08:06:04;;;;;;;14.85;2.30;;;11.80;99.90;;;;;;5020543;28;20230;-64
2023/01/05 08:08:29;;;;;;;9.32;2.97;;;11.90;99.90;;;;;;5013917;28;20198;-65
2023/01/05 08:10:55;;;;;;;12.52;2.17;;;11.80;99.90;;;;;;5013814;28;20183;-64
2023/01/05 08:16:05;;;;;;;12.80;2.67;;;12.00;99.90;;;;;;5014844;28;20197;-63
2023/01/05 08:18:31;;;;;;;10.80;3.28;;;11.90;99.90;;;;;;5021489;28;20179;-63
2023/01/05 08:20:59;;;;;;;9.23;2.95;;;11.90;99.90;;;;;;5020281;28;20587;-64
2023/01/05 08:23:26;;;;;;;15.05;2.63;;;12.10;99.90;;;;;;5014404;28;20269;-64
2023/01/05 08:25:53;;;;;;;22.23;3.47;;;12.10;99.90;;;;;;5023314;28;20650;-62
2023/01/05 08:28:19;;;;;;;18.75;2.50;;;11.90;99.90;;;;;;5020610;28;20175;-64
2023/01/05 08:30:46;;;;;;;12.68;2.90;;;11.90;99.90;;;;;;5012761;28;20187;-65
2023/01/05 08:33:12;;;;;;;15.75;3.20;;;11.80;99.90;;;;;;4997817;28;20187;-62
2023/01/05 08:35:42;;;;;;;14.23;2.92;;;11.90;99.90;;;;;;5013331;28;20262;-64
2023/01/05 08:38:08;;;;;;;7.20;2.55;;;12.00;99.90;;;;;;4997578;28;20211;-63
2023/01/05 08:40:36;;;;;;;15.27;3.30;;;12.00;99.90;;;;;;5017653;28;20221;-64
2023/01/05 08:43:06;;;;;;;17.75;6.63;;;12.10;99.90;;;;;;5015267;28;20210;-63
2023/01/05 08:45:32;;;;;;;23.17;2.72;;;12.20;99.90;;;;;;5004711;28;20641;-64
2023/01/05 08:47:57;;;;;;;12.35;3.58;;;12.20;99.90;;;;;;5021905;28;20186;-63
2023/01/05 08:50:23;;;;;;;14.02;2.97;;;12.20;99.90;;;;;;5020442;28;20310;-64
2023/01/05 08:52:49;;;;;;;24.33;3.50;;;12.20;99.90;;;;;;5020140;28;20278;-64
2023/01/05 08:55:15;;;;;;;14.18;3.38;;;12.20;99.90;;;;;;5012202;28;20223;-65
2023/01/05 08:57:40;;;;;;;18.05;4.25;;;12.30;99.90;;;;;;5021636;28;20191;-63
2023/01/05 09:00:07;;;;;;;14.73;3.22;;;12.30;99.90;;;;;;5012452;28;20191;-64
2023/01/05 09:02:32;;;;;;;18.10;3.75;;;12.40;99.90;;;;;;5012172;28;20736;-64
2023/01/05 09:04:58;;;;;;;13.25;2.35;;;12.50;99.90;;;;;;5011473;28;20274;-63
2023/01/05 09:07:24;;;;;;;13.82;4.30;;;12.40;99.90;;;;;;5006326;28;20187;-64
2023/01/05 09:09:49;;;;;;;16.73;2.65;;;12.40;99.90;;;;;;4995169;28;20606;-63
2023/01/05 09:12:15;;;;;;;14.18;2.97;;;12.50;99.90;;;;;;5008492;28;20207;-64
2023/01/05 09:14:41;;;;;;;18.83;3.10;;;12.40;99.90;;;;;;5022730;28;20187;-65
2023/01/05 09:17:07;;;;;;;16.02;3.65;;;12.40;99.90;;;;;;5013013;28;20187;-63
2023/01/05 09:19:33;;;;;;;16.58;3.47;;;12.40;99.90;;;;;;5015472;28;20187;-64
2023/01/05 09:21:58;;;;;;;15.70;3.45;;;12.40;99.90;;;;;;5006710;28;20202;-64
2023/01/05 09:24:24;;;;;;;17.33;3.40;;;12.50;99.90;;;;;;5011366;28;20225;-65
2023/01/05 09:26:50;;;;;;;20.80;5.07;;;12.60;99.90;;;;;;5033776;28;20236;-65
2023/01/05 09:29:15;;;;;;;9.98;3.00;;;12.60;99.90;;;;;;4997944;28;20180;-65
2023/01/05 09:31:42;;;;;;;17.20;3.67;;;12.70;99.90;;;;;;4994499;28;20183;-65
2023/01/05 09:34:08;;;;;;;14.73;3.35;;;12.80;99.90;;;;;;5005435;28;20599;-64
2023/01/05 09:36:35;;;;;;;16.70;4.30;;;12.80;99.90;;;;;;5011951;28;20176;-64
2023/01/05 09:39:00;;;;;;;18.73;3.78;;;12.80;99.90;;;;;;5011284;28;20202;-64
2023/01/05 09:41:30;;;;;;;16.38;3.88;;;12.80;99.90;;;;;;5027663;28;20262;-63
2023/01/05 09:44:00;;;;;;;12.73;2.75;;;12.80;99.90;;;;;;5021529;28;20207;-64
2023/01/05 09:46:32;;;;;;;16.33;3.10;;;12.80;99.90;;;;;;5013445;28;20191;-65
2023/01/05 09:49:02;;;;;;;20.80;4.53;;;12.80;99.90;;;;;;5012029;28;20186;-63
2023/01/05 09:51:28;;;;;;;14.88;2.83;;;12.80;99.90;;;;;;5012205;28;20179;-64
2023/01/05 09:53:55;;;;;;;14.70;2.67;;;12.80;99.90;;;;;;5021485;28;20195;-64
2023/01/05 09:56:37;;;;;;;17.45;3.90;;;12.90;99.90;;;;;;5018456;28;20180;-65
2023/01/05 09:59:26;;;;;;;15.88;2.65;;;12.80;99.90;;;;;;5013741;28;20190;-63
2023/01/05 10:01:54;;;;;;;14.02;3.60;;;12.80;99.90;;;;;;5011642;28;20180;-64
2023/01/05 10:04:23;;;;;;;12.20;4.50;;;12.60;99.90;;;;;;5012152;28;20203;-64
2023/01/05 10:06:54;;;;;;;15.20;3.90;;;12.60;99.90;;;;;;5010356;28;20190;-63
2023/01/05 10:09:23;;;;;;;8.45;2.38;;;12.50;99.90;;;;;;5013683;28;20187;-64
2023/01/05 10:15:11;;;;;;;16.05;4.32;;;12.70;99.90;;;;;;5019681;28;20234;-65
2023/01/05 10:17:41;;;;;;;19.10;3.55;;;12.80;99.90;;;;;;5003942;28;20215;-64
2023/01/05 10:20:15;;;;;;;12.55;2.50;;;12.80;99.90;;;;;;5011072;28;20179;-63
2023/01/05 10:22:47;;;;;;;15.55;2.92;;;12.90;99.90;;;;;;5010366;28;20211;-63
2023/01/05 10:25:27;;;;;;;17.05;3.78;;;12.80;99.90;;;;;;5015959;28;20180;-64
2023/01/05 10:28:07;;;;;;;18.23;3.15;;;12.70;99.90;;;;;;5024069;28;20179;-65
2023/01/05 10:30:39;;;;;;;20.67;4.28;;;12.60;99.90;;;;;;5024221;28;20171;-64
2023/01/05 10:33:31;;;;;;;13.00;2.42;;;12.60;99.90;;;;;;5030198;28;20195;-64
2023/01/05 10:36:21;;;;;;;20.48;3.45;;;12.60;99.90;;;;;;5015480;28;20539;-67
2023/01/05 10:39:04;;;;;;;22.02;4.22;;;12.50;99.90;;;;;;5024284;28;20262;-64
2023/01/05 10:41:38;;;;;;;10.25;3.92;;;12.40;99.90;;;;;;5016228;28;20180;-65
2023/01/05 10:44:36;;;;;;;8.73;2.65;;;12.40;99.90;;;;;;5017977;28;20221;-65
2023/01/05 10:47:02;;;;;;;13.15;4.18;;;12.50;99.90;;;;;;5021696;28;20176;-65
2023/01/05 10:49:30;;;;;;;16.33;3.63;;;12.70;99.90;;;;;;5014507;28;20555;-65
2023/01/05 10:51:58;;;;;;;17.23;3.35;;;12.70;99.90;;;;;;5017909;28;20175;-65
2023/01/05 10:54:37;;;;;;;6.85;2.55;;;12.70;99.90;;;;;;5023026;28;20199;-66
2023/01/05 10:57:31;;;;;;;14.95;3.45;;;12.80;99.90;;;;;;5023472;28;20183;-65
2023/01/05 11:00:09;;;;;;;13.80;2.53;;;12.80;99.90;;;;;;5014248;28;20590;-64
2023/01/05 11:02:44;;;;;;;14.50;4.47;;;12.90;99.90;;;;;;5014399;28;20239;-65
2023/01/05 11:05:10;;;;;;;12.93;3.53;;;12.90;99.90;;;;;;5020418;28;20190;-64
2023/01/05 11:07:57;;;;;;;9.38;2.47;;;13.00;99.90;;;;;;5035710;28;20187;-64
2023/01/05 11:10:35;;;;;;;11.07;3.55;;;13.10;99.90;;;;;;5015305;28;20237;-64
2023/01/05 11:13:17;;;;;;;20.02;4.30;;;13.10;99.90;;;;;;5013325;28;20240;-65
2023/01/05 11:15:51;;;;;;;20.27;4.32;;;13.00;99.90;;;;;;5014584;28;20695;-65
2023/01/05 11:18:39;;;;;;;12.23;3.08;;;13.00;99.90;;;;;;5014858;28;20668;-64
2023/01/05 11:21:19;;;;;;;8.00;2.58;;;13.10;99.90;;;;;;5022585;28;20266;-63
2023/01/05 11:23:47;;;;;;;7.15;2.70;;;13.30;99.90;;;;;;5012705;28;20258;-64
2023/01/05 11:26:20;;;;;;;12.73;3.85;;;13.40;99.90;;;;;;5012499;28;20702;-64
2023/01/05 11:29:15;;;;;;;10.35;3.08;;;13.60;99.90;;;;;;5014458;28;20583;-66
2023/01/05 11:31:44;;;;;;;18.35;4.63;;;13.50;99.90;;;;;;5006169;28;20572;-65
2023/01/05 11:34:34;;;;;;;19.55;4.72;;;13.50;99.90;;;;;;5024035;28;20185;-64
2023/01/05 11:37:08;;;;;;;15.88;3.80;;;13.60;99.90;;;;;;5007644;28;20183;-65
2023/01/05 11:39:47;;;;;;;19.40;3.78;;;13.80;99.90;;;;;;5017893;28;20181;-63
2023/01/05 11:42:25;;;;;;;17.25;4.40;;;13.90;99.90;;;;;;5015922;28;20176;-63
2023/01/05 11:45:02;;;;;;;15.15;2.80;;;13.90;99.90;;;;;;5011473;28;20191;-67
2023/01/05 11:47:27;;;;;;;15.00;4.75;;;14.10;99.90;;;;;;5007776;28;20569;-66
2023/01/05 11:50:21;;;;;;;14.90;3.15;;;14.20;99.90;;;;;;5011012;28;20262;-65
2023/01/05 11:52:49;;;;;;;12.55;3.45;;;14.20;99.90;;;;;;5017349;28;20199;-64
2023/01/05 11:55:37;;;;;;;11.98;2.58;;;14.20;99.90;;;;;;5013527;28;20191;-65
2023/01/05 11:58:22;;;;;;;15.73;3.80;;;14.30;99.90;;;;;;5010534;28;20183;-65
2023/01/05 12:00:52;;;;;;;16.55;3.65;;;14.30;99.90;;;;;;5003088;28;20660;-65
2023/01/05 12:03:45;;;;;;;14.68;3.38;;;14.30;99.90;;;;;;5013723;28;20203;-65
2023/01/05 12:06:32;;;;;;;18.33;4.80;;;14.30;99.90;;;;;;5013161;28;20234;-65
2023/01/05 12:09:38;;;;;;;11.20;2.83;;;14.40;99.90;;;;;;5013819;28;20179;-65
2023/01/05 12:12:42;;;;;;;14.82;2.65;;;14.30;99.90;;;;;;5011910;28;20194;-65
2023/01/05 12:15:29;;;;;;;23.92;5.70;;;14.30;99.90;;;;;;5018489;28;20724;-64
2023/01/05 12:18:15;;;;;;;14.93;3.80;;;14.50;99.90;;;;;;5014635;28;20241;-65
2023/01/05 12:21:17;;;;;;;9.82;3.65;;;14.40;99.90;;;;;;5013169;28;20175;-65
2023/01/05 12:23:50;;;;;;;14.63;3.25;;;14.40;99.90;;;;;;5010621;28;20230;-64
2023/01/05 12:26:22;;;;;;;19.38;4.65;;;14.30;99.90;;;;;;5016526;28;20193;-64
2023/01/05 12:29:15;;;;;;;15.15;3.85;;;14.40;99.90;;;;;;5022272;28;20178;-65
2023/01/05 12:32:18;;;;;;;13.55;2.85;;;14.40;99.90;;;;;;5000044;28;20198;-63
2023/01/05 12:35:05;;;;;;;17.63;5.30;;;14.50;99.90;;;;;;5013590;28;20540;-64
2023/01/05 12:37:30;;;;;;;16.75;4.15;;;14.40;99.90;;;;;;5016709;28;20170;-64
2023/01/05 12:40:10;;;;;;;13.95;3.47;;;14.30;99.90;;;;;;5014204;28;20695;-64
2023/01/05 12:42:57;;;;;;;19.25;4.22;;;14.30;99.90;;;;;;5012913;28;20262;-64
2023/01/05 12:46:02;;;;;;;18.67;3.95;;;14.30;99.90;;;;;;5003207;28;20290;-64
2023/01/05 12:48:30;;;;;;;12.63;2.78;;;14.40;99.90;;;;;;5020668;28;20190;-64
2023/01/05 12:51:21;;;;;;;11.15;3.25;;;14.50;99.90;;;;;;5013008;28;20184;-64
2023/01/05 12:53:58;;;;;;;16.70;4.13;;;14.40;99.90;;;;;;5012410;28;20229;-63
2023/01/05 12:56:40;;;;;;;24.05;4.00;;;14.20;99.90;;;;;;5013146;28;20261;-63
2023/01/05 12:59:29;;;;;;;19.73;3.60;;;14.00;99.90;;;;;;5012996;28;20183;-63
2023/01/05 13:02:14;;;;;;;18.83;3.63;;;13.90;99.90;;;;;;5009270;28;20206;-63
2023/01/05 13:04:48;;;;;;;17.77;3.97;;;13.70;99.90;;;;;;5022363;28;20218;-64
2023/01/05 13:07:39;;;;;;;19.17;5.47;;;13.50;99.90;;;;;;5024501;28;20631;-63
2023/01/05 13:10:24;;;;;;;19.42;4.97;;;13.40;99.90;;;;;;5010187;28;20180;-65
2023/01/05 13:12:56;;;;;;;15.75;5.72;;;13.30;99.90;;;;;;5012534;28;20190;-63
2023/01/05 13:15:35;;;;;;;16.42;5.40;;;13.40;99.90;;;;;;5018604;28;20250;-62
2023/01/05 13:18:04;;;;;;;11.90;5.25;;;13.40;99.90;;;;;;5002253;28;20179;-63
2023/01/05 13:20:39;;;;;;;25.95;6.20;;;13.40;99.90;;;;;;5012486;28;20529;-64
2023/01/05 13:23:16;;;;;;;13.65;4.85;;;13.30;99.90;;;;;;5012799;28;20237;-63
2023/01/05 13:26:06;;;;;;;7.45;2.58;;;13.40;99.90;;;;;;5007252;28;20203;-64
2023/01/05 13:28:32;;;;;;;14.32;4.65;;;13.40;99.90;;;;;;5001422;28;20250;-64
2023/01/05 13:31:32;;;;;;;7.53;3.45;;;13.40;99.90;;;;;;5002528;28;20235;-64
2023/01/05 13:34:12;;;;;;;18.08;5.20;;;13.40;99.90;;;;;;5012434;28;20190;-64
2023/01/05 13:36:46;;;;;;;14.13;3.75;;;13.30;99.90;;;;;;5012415;28;20210;-64